createdAt,value
2023-03-29T00:02:30.268Z,5.45
2023-03-29T00:05:01.909Z,7.82
2023-03-29T00:07:30.083Z,5.88
2023-03-29T00:09:58.005Z,7.10
2023-03-29T00:12:25.511Z,5.75
2023-03-29T00:14:52.625Z,5.10
2023-03-29T00:17:19.762Z,7.45
2023-03-29T00:19:47.139Z,6.70
2023-03-29T00:22:14.654Z,6.68
2023-03-29T00:24:41.721Z,5.38
2023-03-29T00:27:09.090Z,6.05
2023-03-29T00:29:36.238Z,5.72
2023-03-29T00:32:03.425Z,5.50
2023-03-29T00:34:30.910Z,5.78
2023-03-29T00:36:58.712Z,7.70
2023-03-29T00:39:27.915Z,4.90
2023-03-29T00:41:56.051Z,6.30
2023-03-29T00:44:58.560Z,6.60
2023-03-29T00:47:29.197Z,7.95
2023-03-29T00:49:57.740Z,7.22
2023-03-29T00:52:30.080Z,6.88
2023-03-29T00:54:58.252Z,6.45
2023-03-29T00:57:27.714Z,8.10
2023-03-29T00:59:56.101Z,8.57
2023-03-29T01:02:25.877Z,7.18
2023-03-29T01:04:59.256Z,6.90
2023-03-29T01:07:31.713Z,5.57
2023-03-29T01:10:06.186Z,6.35
2023-03-29T01:12:36.042Z,8.57
2023-03-29T01:15:05.744Z,6.82
2023-03-29T01:17:33.193Z,6.95
2023-03-29T01:20:07.922Z,11.65
2023-03-29T01:22:41.024Z,7.30
2023-03-29T01:25:15.746Z,6.00
2023-03-29T01:32:56.905Z,6.22
2023-03-29T01:35:45.340Z,4.88
2023-03-29T01:38:18.606Z,7.85
2023-03-29T01:40:45.872Z,7.70
2023-03-29T01:43:13.052Z,5.25
2023-03-29T01:45:48.832Z,7.00
2023-03-29T01:48:22.037Z,8.75
2023-03-29T01:50:54.232Z,7.15
2023-03-29T01:53:27.892Z,5.25
2023-03-29T01:56:00.582Z,8.88
2023-03-29T01:58:31.331Z,6.93
2023-03-29T02:00:59.693Z,6.85
2023-03-29T02:03:30.736Z,7.63
2023-03-29T02:05:58.666Z,7.43
2023-03-29T02:08:28.219Z,7.05
2023-03-29T02:10:57.528Z,4.45
2023-03-29T02:13:24.681Z,6.40
2023-03-29T02:15:51.882Z,9.85
2023-03-29T02:18:19.922Z,10.38
2023-03-29T02:20:48.413Z,8.68
2023-03-29T02:23:34.154Z,6.05
2023-03-29T02:26:01.949Z,8.85
2023-03-29T02:28:30.536Z,8.00
2023-03-29T02:31:02.990Z,8.40
2023-03-29T02:33:39.476Z,5.85
2023-03-29T02:36:18.647Z,8.88
2023-03-29T02:41:13.883Z,7.32
2023-03-29T02:43:41.303Z,7.47
2023-03-29T02:46:08.588Z,9.10
2023-03-29T02:48:36.815Z,6.43
2023-03-29T02:51:06.292Z,10.05
2023-03-29T02:53:36.913Z,8.80
2023-03-29T02:56:04.444Z,7.00
2023-03-29T02:58:31.669Z,7.18
2023-03-29T03:01:00.578Z,9.38
2023-03-29T03:03:29.133Z,7.97
2023-03-29T03:06:01.431Z,8.50
2023-03-29T03:08:29.897Z,6.43
2023-03-29T03:10:57.227Z,7.38
2023-03-29T03:13:25.458Z,10.38
2023-03-29T03:15:54.045Z,7.80
2023-03-29T03:18:21.995Z,7.22
2023-03-29T03:20:55.994Z,7.80
2023-03-29T03:23:23.981Z,7.32
2023-03-29T03:25:52.620Z,7.65
2023-03-29T03:28:20.240Z,7.72
2023-03-29T03:30:47.769Z,8.85
2023-03-29T03:33:18.809Z,8.40
2023-03-29T03:36:06.103Z,7.18
2023-03-29T03:38:36.147Z,6.90
2023-03-29T03:41:04.839Z,10.20
2023-03-29T03:43:34.387Z,9.55
2023-03-29T03:46:02.350Z,7.10
2023-03-29T03:48:30.430Z,9.73
2023-03-29T03:51:07.989Z,7.53
2023-03-29T03:53:35.878Z,9.40
2023-03-29T03:56:16.276Z,7.65
2023-03-29T03:59:15.593Z,7.90
2023-03-29T04:02:05.108Z,9.73
2023-03-29T04:04:32.955Z,8.90
2023-03-29T04:07:18.864Z,7.72
2023-03-29T04:10:11.090Z,6.35
2023-03-29T04:12:38.644Z,7.32
2023-03-29T04:15:07.645Z,10.73
2023-03-29T04:17:35.713Z,8.10
2023-03-29T04:20:18.676Z,10.10
2023-03-29T04:22:46.044Z,8.25
2023-03-29T04:25:13.472Z,7.90
2023-03-29T04:27:58.797Z,6.95
2023-03-29T04:30:46.438Z,7.70
2023-03-29T04:33:19.004Z,6.68
2023-03-29T04:35:51.993Z,7.32
2023-03-29T04:38:22.929Z,8.73
2023-03-29T04:40:51.483Z,8.80
2023-03-29T04:43:24.827Z,8.32
2023-03-29T04:46:02.116Z,8.32
2023-03-29T04:48:52.121Z,8.02
2023-03-29T04:51:28.655Z,7.70
2023-03-29T04:53:56.019Z,9.43
2023-03-29T04:56:23.890Z,8.90
2023-03-29T04:59:14.071Z,9.00
2023-03-29T05:01:41.547Z,8.63
2023-03-29T05:04:12.081Z,9.15
2023-03-29T05:06:45.675Z,7.38
2023-03-29T05:09:12.807Z,6.68
2023-03-29T05:11:45.917Z,9.40
2023-03-29T05:14:13.613Z,9.60
2023-03-29T05:16:42.451Z,8.45
2023-03-29T05:19:09.660Z,7.32
2023-03-29T05:21:39.889Z,9.65
2023-03-29T05:24:09.920Z,7.10
2023-03-29T05:26:53.491Z,9.52
2023-03-29T05:29:21.589Z,6.85
2023-03-29T05:31:54.595Z,6.97
2023-03-29T05:34:22.813Z,9.77
2023-03-29T05:36:54.010Z,8.15
2023-03-29T05:39:21.470Z,9.80
2023-03-29T05:41:48.986Z,6.47
2023-03-29T05:44:31.706Z,6.57
2023-03-29T05:47:08.292Z,8.23
2023-03-29T05:49:35.432Z,10.27
2023-03-29T05:52:09.566Z,8.73
2023-03-29T05:54:38.306Z,7.85
2023-03-29T05:57:06.776Z,10.75
2023-03-29T05:59:33.992Z,8.27
2023-03-29T06:02:03.649Z,10.60
2023-03-29T06:04:33.373Z,7.10
2023-03-29T06:07:21.023Z,7.80
2023-03-29T06:10:09.597Z,10.77
2023-03-29T06:12:38.582Z,8.20
2023-03-29T06:15:06.588Z,8.27
2023-03-29T06:17:54.020Z,7.30
2023-03-29T06:20:21.547Z,9.45
2023-03-29T06:22:53.593Z,10.48
2023-03-29T06:25:20.777Z,9.20
2023-03-29T06:27:50.057Z,7.57
2023-03-29T06:30:19.626Z,7.18
2023-03-29T06:32:50.845Z,9.02
2023-03-29T06:35:28.307Z,8.13
2023-03-29T06:38:04.746Z,8.52
2023-03-29T06:40:45.792Z,8.00
2023-03-29T06:43:14.053Z,10.35
2023-03-29T06:45:47.898Z,10.73
2023-03-29T06:48:25.380Z,11.70
2023-03-29T06:50:54.388Z,10.40
2023-03-29T06:53:24.648Z,9.38
2023-03-29T06:55:56.748Z,9.38
2023-03-29T06:58:40.855Z,9.05
2023-03-29T07:01:34.918Z,8.50
2023-03-29T07:04:17.583Z,8.75
2023-03-29T07:07:07.714Z,8.90
2023-03-29T07:09:36.508Z,10.15
2023-03-29T07:12:24.191Z,10.60
2023-03-29T07:14:52.793Z,9.35
2023-03-29T07:17:19.979Z,9.13
2023-03-29T07:19:48.867Z,10.55
2023-03-29T07:22:54.368Z,10.68
2023-03-29T07:25:22.385Z,14.68
2023-03-29T07:27:50.379Z,10.13
2023-03-29T07:30:22.845Z,8.93
2023-03-29T07:32:51.079Z,9.63
2023-03-29T07:35:27.409Z,12.52
2023-03-29T07:37:55.756Z,11.63
2023-03-29T07:40:24.451Z,11.18
2023-03-29T07:42:58.722Z,9.05
2023-03-29T07:45:29.070Z,12.13
2023-03-29T07:48:00.540Z,9.30
2023-03-29T07:50:35.435Z,8.73
2023-03-29T07:53:04.928Z,12.32
2023-03-29T07:55:33.744Z,12.93
2023-03-29T07:58:10.937Z,11.32
2023-03-29T08:00:38.282Z,9.13
2023-03-29T08:03:28.827Z,12.15
2023-03-29T08:05:56.061Z,11.68
2023-03-29T08:08:23.230Z,10.43
2023-03-29T08:10:54.393Z,10.90
2023-03-29T08:13:33.653Z,11.15
2023-03-29T08:16:19.380Z,13.68
2023-03-29T08:18:53.073Z,11.68
2023-03-29T08:21:22.571Z,11.25
2023-03-29T08:23:51.072Z,13.48
2023-03-29T08:26:25.713Z,13.73
2023-03-29T08:28:53.112Z,13.10
2023-03-29T08:31:22.570Z,11.00
2023-03-29T08:33:49.774Z,11.68
2023-03-29T08:36:32.177Z,14.48
2023-03-29T08:39:05.768Z,10.60
2023-03-29T08:41:39.043Z,13.65
2023-03-29T08:44:14.404Z,13.75
2023-03-29T08:47:12.758Z,11.70
2023-03-29T08:49:44.236Z,14.25
2023-03-29T08:52:17.727Z,12.30
2023-03-29T08:54:46.958Z,12.80
2023-03-29T08:57:31.676Z,14.77
2023-03-29T09:00:06.529Z,14.75
2023-03-29T09:02:39.024Z,14.23
2023-03-29T09:05:14.550Z,15.63
2023-03-29T09:07:53.666Z,16.48
2023-03-29T09:10:22.343Z,15.35
2023-03-29T09:13:01.776Z,15.43
2023-03-29T09:15:33.107Z,13.60
2023-03-29T09:18:30.643Z,14.35
2023-03-29T09:21:04.908Z,13.95
2023-03-29T09:23:46.965Z,16.70
2023-03-29T09:26:42.368Z,13.85
2023-03-29T09:29:31.104Z,14.43
2023-03-29T09:31:59.112Z,16.08
2023-03-29T09:34:32.649Z,14.05
2023-03-29T09:37:10.290Z,12.82
2023-03-29T09:39:40.970Z,15.43
2023-03-29T09:42:14.109Z,13.30
2023-03-29T09:44:46.844Z,13.55
2023-03-29T09:47:19.542Z,17.67
2023-03-29T09:49:50.000Z,15.23
2023-03-29T09:52:18.178Z,14.18
2023-03-29T09:54:53.906Z,14.60
2023-03-29T09:57:41.621Z,14.80
2023-03-29T10:00:10.602Z,15.45
2023-03-29T10:02:50.592Z,15.60
2023-03-29T10:05:17.959Z,14.60
2023-03-29T10:07:47.687Z,16.77
2023-03-29T10:10:20.954Z,15.02
2023-03-29T10:12:54.686Z,15.15
2023-03-29T10:17:58.063Z,16.38
2023-03-29T10:20:25.267Z,15.77
2023-03-29T10:22:56.782Z,17.73
2023-03-29T10:25:28.511Z,17.15
2023-03-29T10:27:57.955Z,17.98
2023-03-29T10:30:26.086Z,13.40
2023-03-29T10:32:56.766Z,17.33
2023-03-29T10:35:33.233Z,14.20
2023-03-29T10:38:03.446Z,16.50
2023-03-29T10:40:34.401Z,16.98
2023-03-29T10:43:02.580Z,17.17
2023-03-29T10:45:31.680Z,13.82
2023-03-29T10:47:59.441Z,16.08
2023-03-29T10:50:33.309Z,15.50
2023-03-29T10:53:01.580Z,19.50
2023-03-29T10:55:33.696Z,15.52
2023-03-29T10:58:03.883Z,18.77
2023-03-29T11:00:31.022Z,17.48
2023-03-29T11:03:22.283Z,14.68
2023-03-29T11:06:14.119Z,14.95
2023-03-29T11:08:53.624Z,16.13
2023-03-29T11:11:51.528Z,16.92
2023-03-29T11:14:26.184Z,13.18
2023-03-29T11:17:02.462Z,13.93
2023-03-29T11:19:42.853Z,15.45
2023-03-29T11:22:44.177Z,16.10
2023-03-29T11:25:14.915Z,15.23
2023-03-29T11:27:45.037Z,15.50
2023-03-29T11:30:25.850Z,16.70
2023-03-29T11:33:17.567Z,16.92
2023-03-29T11:35:44.687Z,18.08
2023-03-29T11:38:25.039Z,18.75
2023-03-29T11:41:11.190Z,16.27
2023-03-29T11:43:42.739Z,19.13
2023-03-29T11:46:14.641Z,18.35
2023-03-29T11:48:44.764Z,17.73
2023-03-29T11:51:32.295Z,19.42
2023-03-29T11:54:04.829Z,19.40
2023-03-29T11:56:35.642Z,16.63
2023-03-29T11:59:08.062Z,17.90
2023-03-29T12:01:37.759Z,18.55
2023-03-29T12:04:09.092Z,17.88
2023-03-29T12:06:47.674Z,21.52
2023-03-29T12:09:17.590Z,20.65
2023-03-29T12:11:49.326Z,19.05
2023-03-29T12:14:30.481Z,18.58
2023-03-29T12:17:02.712Z,18.77
2023-03-29T12:19:31.901Z,21.33
2023-03-29T12:22:00.052Z,20.63
2023-03-29T12:24:29.039Z,18.35
2023-03-29T12:27:24.343Z,25.85
2023-03-29T12:30:09.769Z,22.35
2023-03-29T12:32:42.892Z,24.27
2023-03-29T12:35:45.353Z,21.40
2023-03-29T12:38:31.601Z,25.55
2023-03-29T12:41:19.182Z,18.58
2023-03-29T12:44:05.752Z,19.58
2023-03-29T12:46:42.132Z,22.98
2023-03-29T12:49:13.853Z,19.40
2023-03-29T12:51:42.369Z,22.67
2023-03-29T12:54:14.518Z,28.80
2023-03-29T12:56:54.456Z,20.77
2023-03-29T12:59:27.138Z,22.67
2023-03-29T13:02:14.341Z,24.27
2023-03-29T13:04:44.574Z,24.02
2023-03-29T13:07:23.735Z,21.95
2023-03-29T13:09:52.762Z,20.00
2023-03-29T13:12:35.133Z,22.42
2023-03-29T13:15:04.776Z,21.08
2023-03-29T13:17:39.537Z,22.08
2023-03-29T13:20:33.639Z,18.77
2023-03-29T13:23:17.461Z,21.70
2023-03-29T13:25:52.166Z,25.40
2023-03-29T13:28:33.943Z,23.63
2023-03-29T13:31:17.307Z,23.85
2023-03-29T13:33:44.520Z,22.95
2023-03-29T13:36:17.562Z,23.70
2023-03-29T13:38:46.181Z,24.20
2023-03-29T13:41:41.013Z,21.50
2023-03-29T13:44:23.118Z,20.80
2023-03-29T13:47:02.183Z,22.23
2023-03-29T13:49:31.795Z,23.30
2023-03-29T13:52:12.698Z,20.05
2023-03-29T13:54:47.189Z,21.52
2023-03-29T13:57:19.481Z,20.90
2023-03-29T13:59:52.764Z,23.75
2023-03-29T14:02:32.250Z,21.67
2023-03-29T14:05:00.593Z,22.98
2023-03-29T14:07:28.973Z,21.95
2023-03-29T14:09:58.009Z,22.65
2023-03-29T14:12:25.733Z,21.67
2023-03-29T14:14:58.701Z,21.92
2023-03-29T14:17:27.216Z,23.33
2023-03-29T14:19:57.768Z,24.00
2023-03-29T14:22:25.182Z,23.63
2023-03-29T14:24:53.471Z,19.90
2023-03-29T14:27:22.985Z,20.73
2023-03-29T14:29:51.156Z,20.75
2023-03-29T14:32:19.282Z,21.55
2023-03-29T14:34:50.445Z,20.45
2023-03-29T14:37:26.168Z,18.70
2023-03-29T14:39:53.671Z,21.77
2023-03-29T14:42:22.095Z,18.42
2023-03-29T14:44:50.648Z,21.35
2023-03-29T14:47:23.521Z,18.85
2023-03-29T14:52:18.863Z,19.73
2023-03-29T14:54:47.525Z,17.58
2023-03-29T14:57:18.472Z,20.63
2023-03-29T14:59:54.195Z,19.08
2023-03-29T15:02:24.265Z,18.33
2023-03-29T15:05:04.993Z,19.05
2023-03-29T15:07:36.992Z,19.58
2023-03-29T15:10:06.425Z,15.90
2023-03-29T15:12:34.044Z,16.27
2023-03-29T15:15:02.444Z,14.43
2023-03-29T15:17:43.157Z,16.30
2023-03-29T15:20:28.635Z,17.67
2023-03-29T15:23:09.891Z,17.45
2023-03-29T15:25:50.203Z,15.85
2023-03-29T15:28:34.248Z,14.30
2023-03-29T15:31:11.889Z,12.57
2023-03-29T15:33:40.496Z,14.48
2023-03-29T15:36:09.267Z,15.80
2023-03-29T15:38:43.835Z,13.13
2023-03-29T15:41:12.472Z,14.75
2023-03-29T15:43:39.638Z,12.13
2023-03-29T15:46:07.441Z,12.48
2023-03-29T15:48:34.939Z,13.85
2023-03-29T15:51:05.475Z,11.23
2023-03-29T15:53:33.470Z,12.98
2023-03-29T15:56:02.127Z,13.55
2023-03-29T15:58:33.154Z,12.38
2023-03-29T16:01:13.230Z,13.20
2023-03-29T16:03:41.634Z,12.02
2023-03-29T16:06:12.818Z,13.93
2023-03-29T16:08:41.330Z,17.15
2023-03-29T16:11:09.076Z,10.85
2023-03-29T16:13:36.448Z,12.38
2023-03-29T16:16:03.985Z,12.15
2023-03-29T16:18:31.314Z,12.88
2023-03-29T16:20:59.345Z,11.45
2023-03-29T16:23:26.553Z,12.93
2023-03-29T16:25:53.779Z,12.63
2023-03-29T16:28:21.632Z,10.00
2023-03-29T16:30:48.991Z,12.60
2023-03-29T16:33:16.418Z,13.65
2023-03-29T16:35:43.646Z,15.20
2023-03-29T16:38:10.828Z,13.75
2023-03-29T16:40:38.444Z,11.23
2023-03-29T16:43:05.691Z,10.10
2023-03-29T16:45:32.897Z,10.25
2023-03-29T16:48:00.071Z,10.60
2023-03-29T16:50:27.416Z,10.65
2023-03-29T16:52:54.640Z,11.50
2023-03-29T16:55:21.710Z,10.75
2023-03-29T16:57:50.862Z,10.07
2023-03-29T17:00:19.837Z,8.98
2023-03-29T17:02:49.727Z,10.63
2023-03-29T17:05:17.564Z,11.68
2023-03-29T17:07:45.406Z,10.15
2023-03-29T17:10:12.749Z,11.68
2023-03-29T17:12:40.147Z,10.73
2023-03-29T17:15:07.792Z,11.32
2023-03-29T17:17:35.531Z,9.75
2023-03-29T17:20:02.718Z,8.82
2023-03-29T17:22:29.785Z,10.27
2023-03-29T17:24:57.045Z,9.55
2023-03-29T17:27:24.160Z,10.07
2023-03-29T17:29:51.333Z,9.95
2023-03-29T17:32:18.423Z,11.43
2023-03-29T17:34:46.228Z,9.30
2023-03-29T17:37:13.456Z,9.93
2023-03-29T17:39:41.907Z,10.75
2023-03-29T17:42:08.965Z,9.65
2023-03-29T17:44:36.158Z,12.27
2023-03-29T17:47:03.299Z,11.40
2023-03-29T17:49:30.548Z,12.23
2023-03-29T17:51:57.815Z,11.95
2023-03-29T17:54:24.869Z,11.38
2023-03-29T17:56:52.116Z,10.88
2023-03-29T17:59:19.307Z,9.25
2023-03-29T18:01:46.432Z,12.52
2023-03-29T18:04:13.565Z,10.05
2023-03-29T18:06:40.655Z,9.95
2023-03-29T18:09:07.816Z,10.38
2023-03-29T18:11:36.275Z,10.18
2023-03-29T18:14:04.712Z,9.88
2023-03-29T18:16:31.925Z,11.98
2023-03-29T18:18:59.123Z,10.55
2023-03-29T18:21:27.279Z,11.73
2023-03-29T18:23:56.660Z,10.95
2023-03-29T18:26:25.044Z,10.77
2023-03-29T18:28:52.326Z,10.45
2023-03-29T18:31:19.852Z,11.13
2023-03-29T18:33:47.592Z,13.40
2023-03-29T18:36:15.093Z,17.92
2023-03-29T18:38:43.713Z,14.77
2023-03-29T18:41:12.345Z,14.50
2023-03-29T18:43:39.960Z,15.02
2023-03-29T18:46:08.052Z,13.52
2023-03-29T18:48:38.669Z,11.52
2023-03-29T18:51:07.436Z,12.98
2023-03-29T18:53:35.320Z,11.93
2023-03-29T18:56:03.449Z,13.63
2023-03-29T18:58:30.780Z,15.73
2023-03-29T19:01:03.512Z,13.88
2023-03-29T19:03:31.613Z,15.48
2023-03-29T19:05:58.994Z,14.88
2023-03-29T19:08:26.282Z,13.68
2023-03-29T19:10:54.227Z,13.38
2023-03-29T19:13:21.370Z,12.75
2023-03-29T19:15:48.598Z,14.45
2023-03-29T19:18:15.950Z,14.70
2023-03-29T19:20:43.044Z,13.68
2023-03-29T19:23:10.187Z,16.33
2023-03-29T19:25:37.863Z,15.23
2023-03-29T19:28:05.153Z,16.05
2023-03-29T19:30:32.584Z,14.75
2023-03-29T19:32:59.765Z,14.32
2023-03-29T19:35:27.015Z,15.20
2023-03-29T19:37:54.134Z,17.08
2023-03-29T19:40:21.745Z,16.23
2023-03-29T19:42:48.873Z,17.30
2023-03-29T19:45:16.016Z,15.38
2023-03-29T19:47:47.564Z,19.27
2023-03-29T19:50:15.022Z,18.05
2023-03-29T19:52:42.935Z,16.40
2023-03-29T19:55:10.634Z,17.63
2023-03-29T19:57:37.790Z,17.70
2023-03-29T20:00:07.872Z,17.15
2023-03-29T20:02:39.498Z,16.20
2023-03-29T20:05:08.272Z,14.93
2023-03-29T20:07:35.416Z,15.48
2023-03-29T20:10:02.762Z,14.65
2023-03-29T20:12:29.865Z,17.65
2023-03-29T20:14:56.972Z,16.13
2023-03-29T20:17:24.169Z,18.55
2023-03-29T20:19:51.285Z,14.65
2023-03-29T20:22:19.024Z,15.55
2023-03-29T20:24:46.229Z,13.45
2023-03-29T20:27:13.804Z,15.27
2023-03-29T20:29:41.145Z,14.68
2023-03-29T20:32:09.138Z,13.90
2023-03-29T20:34:36.848Z,16.60
2023-03-29T20:37:03.971Z,14.05
2023-03-29T20:39:31.436Z,16.77
2023-03-29T20:41:59.014Z,13.50
2023-03-29T20:44:28.354Z,13.63
2023-03-29T20:47:03.282Z,12.43
2023-03-29T20:49:37.619Z,13.63
2023-03-29T20:52:12.234Z,11.98
2023-03-29T20:54:39.332Z,14.05
2023-03-29T20:57:07.655Z,14.57
2023-03-29T20:59:35.449Z,15.90
2023-03-29T21:02:02.631Z,12.68
2023-03-29T21:04:30.009Z,11.60
2023-03-29T21:06:59.896Z,14.05
2023-03-29T21:09:30.952Z,14.07
2023-03-29T21:11:58.030Z,14.45
2023-03-29T21:14:26.646Z,15.82
2023-03-29T21:16:53.862Z,13.50
2023-03-29T21:19:21.139Z,10.80
2023-03-29T21:21:52.131Z,12.90
2023-03-29T21:24:19.819Z,12.27
2023-03-29T21:26:46.996Z,11.15
2023-03-29T21:29:14.177Z,12.20
2023-03-29T21:31:41.448Z,11.25
2023-03-29T21:34:08.907Z,10.85
2023-03-29T21:36:36.274Z,14.45
2023-03-29T21:39:03.565Z,11.43
2023-03-29T21:41:30.891Z,11.27
2023-03-29T21:43:57.981Z,10.40
2023-03-29T21:46:25.893Z,11.63
2023-03-29T21:48:53.184Z,11.63
2023-03-29T21:51:20.310Z,12.88
2023-03-29T21:53:47.480Z,11.23
2023-03-29T21:56:14.570Z,12.63
2023-03-29T21:58:41.771Z,12.05
2023-03-29T22:01:10.452Z,13.55
2023-03-29T22:03:38.480Z,11.75
2023-03-29T22:06:10.421Z,10.88
2023-03-29T22:08:40.971Z,12.70
2023-03-29T22:11:09.724Z,11.27
2023-03-29T22:13:37.315Z,12.43
2023-03-29T22:16:05.037Z,11.25
2023-03-29T22:18:42.254Z,11.48
2023-03-29T22:21:13.896Z,12.57
2023-03-29T22:23:42.255Z,12.95
2023-03-29T22:26:11.064Z,12.98
2023-03-29T22:28:38.267Z,12.52
2023-03-29T22:31:06.434Z,10.27
2023-03-29T22:33:34.516Z,12.13
2023-03-29T22:36:02.229Z,10.75
2023-03-29T22:38:29.908Z,12.00
2023-03-29T22:40:56.968Z,12.68
2023-03-29T22:43:24.317Z,11.88
2023-03-29T22:45:51.467Z,13.70
2023-03-29T22:48:18.656Z,11.82
2023-03-29T22:50:48.667Z,12.23
2023-03-29T22:53:16.033Z,10.52
2023-03-29T22:55:45.842Z,9.90
2023-03-29T22:58:12.984Z,10.23
2023-03-29T23:00:40.620Z,9.98
2023-03-29T23:03:07.755Z,10.48
2023-03-29T23:05:35.013Z,9.35
2023-03-29T23:08:02.188Z,9.65
2023-03-29T23:10:30.354Z,10.02
2023-03-29T23:13:10.750Z,8.75
2023-03-29T23:15:38.765Z,12.05
2023-03-29T23:18:06.024Z,11.80
2023-03-29T23:20:33.386Z,10.60
2023-03-29T23:23:00.562Z,10.52
2023-03-29T23:25:28.771Z,11.50
2023-03-29T23:27:55.874Z,9.10
2023-03-29T23:30:23.082Z,9.73
2023-03-29T23:32:52.380Z,8.63
2023-03-29T23:35:19.963Z,9.80
2023-03-29T23:37:47.683Z,10.00
2023-03-29T23:40:15.521Z,9.57
2023-03-29T23:42:43.542Z,10.05
2023-03-29T23:45:15.666Z,10.18
2023-03-29T23:47:44.105Z,9.80
2023-03-29T23:50:13.281Z,9.20
2023-03-29T23:52:41.079Z,9.48
2023-03-29T23:55:09.369Z,11.43
2023-03-29T23:57:37.079Z,10.63
